< Typhoon 195912 1959 Season Typhoon 195914 >
Typhoon 195913 (NORA)
General InformationTrack Information on Google Maps || Disaster Info.ResourceGoogle EarthGE AnimationAtom FeedGeoJSON
Detalied Best Track (Time Zone = UTC)
Year Month Day Hour Lat. Long. Pressure (hPa) Wind (kt) Class Image Chart
1959 9 7 18 18.0 119.0 1006 0 2 -- Chart
1959 9 8 00 18.0 118.5 1006 0 2 -- Chart
1959 9 8 06 18.0 117.6 1004 0 2 -- Chart
1959 9 8 12 18.5 117.0 1002 0 2 -- Chart
1959 9 8 18 19.0 116.5 1000 0 2 -- Chart
1959 9 9 00 19.4 116.0 1000 0 2 -- Chart
1959 9 9 06 19.7 115.6 1000 0 2 -- Chart
1959 9 9 12 20.0 115.0 1000 0 2 -- Chart
1959 9 9 18 20.0 114.0 1000 0 2 -- Chart
1959 9 10 00 20.5 114.1 994 0 9 -- Chart
1959 9 10 06 21.0 114.5 994 0 9 -- Chart
1959 9 10 12 21.8 114.9 990 0 9 -- Chart
1959 9 10 18 22.5 115.1 988 0 9 -- Chart
1959 9 11 00 23.5 115.5 990 0 9 -- Chart
1959 9 11 06 24.6 116.5 996 0 2 -- Chart
1959 9 11 12 25.7 117.7 998 0 2 -- Chart
1959 9 11 18 26.5 119.0 1002 0 2 -- Chart
1959 9 12 00 27.5 120.5 1002 0 6 -- Chart
1959 9 12 06 29.0 121.9 1002 0 6 -- Chart
1959 9 12 12 30.5 123.2 1002 0 6 -- Chart
1959 9 12 18 31.0 124.5 1002 0 6 -- Chart
1959 9 13 00 32.5 126.0 1002 0 6 -- Chart
1959 9 13 06 34.0 128.5 1002 0 6 -- Chart
1959 9 13 12 34.5 130.5 1004 0 6 -- Chart
1959 9 13 18 35.0 132.5 1006 0 6 -- Chart
1959 9 14 00 36.5 133.5 1008 0 6 -- Chart
Japan Meteorological Agency Best Track Data | Correction Date : 1989-06-01
< Typhoon 195912 1959 Season Typhoon 195914 >

Help